sensor_id;sensor_type;location;lat;lon;timestamp;P1;durP1;ratioP1;P2;durP2;ratioP2
41099;SDS011;26844;53.686;-6.346;2022-12-26T00:01:35;37.38;;;35.50;;
41099;SDS011;26844;53.686;-6.346;2022-12-26T00:04:00;59.80;;;56.70;;
41099;SDS011;26844;53.686;-6.346;2022-12-26T00:06:26;86.78;;;82.25;;
41099;SDS011;26844;53.686;-6.346;2022-12-26T00:08:52;57.60;;;54.78;;
41099;SDS011;26844;53.686;-6.346;2022-12-26T00:11:18;53.17;;;50.47;;
41099;SDS011;26844;53.686;-6.346;2022-12-26T00:13:43;59.88;;;57.05;;
41099;SDS011;26844;53.686;-6.346;2022-12-26T00:16:09;67.22;;;64.20;;
41099;SDS011;26844;53.686;-6.346;2022-12-26T00:18:35;91.95;;;87.55;;
41099;SDS011;26844;53.686;-6.346;2022-12-26T00:21:00;111.50;;;106.20;;
41099;SDS011;26844;53.686;-6.346;2022-12-26T00:23:25;100.93;;;96.03;;
41099;SDS011;26844;53.686;-6.346;2022-12-26T00:25:51;79.15;;;75.18;;
41099;SDS011;26844;53.686;-6.346;2022-12-26T00:28:16;80.85;;;76.93;;
41099;SDS011;26844;53.686;-6.346;2022-12-26T00:30:41;52.65;;;49.65;;
41099;SDS011;26844;53.686;-6.346;2022-12-26T00:33:06;75.07;;;71.22;;
41099;SDS011;26844;53.686;-6.346;2022-12-26T00:35:31;80.85;;;77.13;;
41099;SDS011;26844;53.686;-6.346;2022-12-26T00:37:57;94.95;;;90.25;;
41099;SDS011;26844;53.686;-6.346;2022-12-26T00:40:22;52.25;;;49.28;;
41099;SDS011;26844;53.686;-6.346;2022-12-26T00:42:47;93.18;;;88.63;;
41099;SDS011;26844;53.686;-6.346;2022-12-26T00:45:12;65.00;;;61.40;;
41099;SDS011;26844;53.686;-6.346;2022-12-26T00:47:38;74.50;;;70.95;;
41099;SDS011;26844;53.686;-6.346;2022-12-26T00:50:03;60.25;;;57.22;;
41099;SDS011;26844;53.686;-6.346;2022-12-26T00:52:29;82.68;;;78.82;;
41099;SDS011;26844;53.686;-6.346;2022-12-26T00:54:54;91.13;;;86.72;;
41099;SDS011;26844;53.686;-6.346;2022-12-26T00:57:19;49.28;;;46.65;;
41099;SDS011;26844;53.686;-6.346;2022-12-26T00:59:44;47.90;;;45.65;;
41099;SDS011;26844;53.686;-6.346;2022-12-26T01:02:10;83.93;;;79.68;;
41099;SDS011;26844;53.686;-6.346;2022-12-26T01:04:55;52.53;;;49.67;;
41099;SDS011;26844;53.686;-6.346;2022-12-26T01:07:20;58.67;;;55.70;;
41099;SDS011;26844;53.686;-6.346;2022-12-26T01:09:45;133.30;;;126.63;;
41099;SDS011;26844;53.686;-6.346;2022-12-26T01:12:10;141.25;;;133.65;;
41099;SDS011;26844;53.686;-6.346;2022-12-26T01:14:36;52.72;;;49.95;;
41099;SDS011;26844;53.686;-6.346;2022-12-26T01:17:04;46.28;;;44.00;;
41099;SDS011;26844;53.686;-6.346;2022-12-26T01:19:29;45.20;;;42.80;;
41099;SDS011;26844;53.686;-6.346;2022-12-26T01:21:54;52.40;;;49.40;;
41099;SDS011;26844;53.686;-6.346;2022-12-26T01:24:19;51.05;;;48.45;;
41099;SDS011;26844;53.686;-6.346;2022-12-26T01:26:45;58.03;;;55.20;;
41099;SDS011;26844;53.686;-6.346;2022-12-26T01:29:10;63.97;;;61.00;;
41099;SDS011;26844;53.686;-6.346;2022-12-26T01:31:35;49.88;;;47.17;;
41099;SDS011;26844;53.686;-6.346;2022-12-26T01:34:00;41.60;;;39.45;;
41099;SDS011;26844;53.686;-6.346;2022-12-26T01:36:26;58.22;;;55.45;;
41099;SDS011;26844;53.686;-6.346;2022-12-26T01:38:51;68.28;;;65.15;;
41099;SDS011;26844;53.686;-6.346;2022-12-26T01:41:16;47.53;;;45.22;;
41099;SDS011;26844;53.686;-6.346;2022-12-26T01:44:03;54.20;;;51.30;;
41099;SDS011;26844;53.686;-6.346;2022-12-26T01:48:57;40.92;;;39.08;;
41099;SDS011;26844;53.686;-6.346;2022-12-26T01:53:51;48.97;;;46.60;;
41099;SDS011;26844;53.686;-6.346;2022-12-26T01:56:19;45.60;;;43.25;;
41099;SDS011;26844;53.686;-6.346;2022-12-26T01:58:47;47.38;;;45.08;;
41099;SDS011;26844;53.686;-6.346;2022-12-26T02:01:13;60.63;;;57.53;;
41099;SDS011;26844;53.686;-6.346;2022-12-26T02:03:39;54.53;;;51.92;;
41099;SDS011;26844;53.686;-6.346;2022-12-26T02:06:25;51.72;;;48.85;;
41099;SDS011;26844;53.686;-6.346;2022-12-26T02:08:50;38.38;;;36.47;;
41099;SDS011;26844;53.686;-6.346;2022-12-26T02:11:26;43.88;;;41.55;;
41099;SDS011;26844;53.686;-6.346;2022-12-26T02:13:55;53.70;;;50.65;;
41099;SDS011;26844;53.686;-6.346;2022-12-26T02:16:20;52.05;;;49.58;;
41099;SDS011;26844;53.686;-6.346;2022-12-26T02:18:46;48.10;;;45.63;;
41099;SDS011;26844;53.686;-6.346;2022-12-26T02:34:24;45.45;;;43.10;;
41099;SDS011;26844;53.686;-6.346;2022-12-26T02:41:51;79.68;;;75.95;;
41099;SDS011;26844;53.686;-6.346;2022-12-26T02:44:20;60.85;;;58.13;;
41099;SDS011;26844;53.686;-6.346;2022-12-26T02:47:18;61.90;;;58.95;;
41099;SDS011;26844;53.686;-6.346;2022-12-26T02:52:43;72.22;;;68.40;;
41099;SDS011;26844;53.686;-6.346;2022-12-26T02:55:30;89.88;;;85.55;;
41099;SDS011;26844;53.686;-6.346;2022-12-26T03:00:59;74.15;;;70.53;;
41099;SDS011;26844;53.686;-6.346;2022-12-26T03:03:44;75.22;;;71.57;;
41099;SDS011;26844;53.686;-6.346;2022-12-26T03:06:44;82.97;;;79.22;;
41099;SDS011;26844;53.686;-6.346;2022-12-26T03:09:30;79.05;;;75.03;;
41099;SDS011;26844;53.686;-6.346;2022-12-26T03:15:03;64.30;;;60.15;;
41099;SDS011;26844;53.686;-6.346;2022-12-26T03:17:30;91.68;;;86.97;;
41099;SDS011;26844;53.686;-6.346;2022-12-26T03:19:59;71.05;;;67.78;;
41099;SDS011;26844;53.686;-6.346;2022-12-26T03:22:28;75.15;;;71.35;;
41099;SDS011;26844;53.686;-6.346;2022-12-26T03:24:54;76.50;;;72.93;;
41099;SDS011;26844;53.686;-6.346;2022-12-26T03:27:39;87.97;;;83.50;;
41099;SDS011;26844;53.686;-6.346;2022-12-26T03:30:04;87.72;;;83.28;;
41099;SDS011;26844;53.686;-6.346;2022-12-26T03:32:48;91.05;;;86.03;;
41099;SDS011;26844;53.686;-6.346;2022-12-26T03:35:13;72.53;;;68.95;;
41099;SDS011;26844;53.686;-6.346;2022-12-26T03:40:13;58.03;;;55.15;;
41099;SDS011;26844;53.686;-6.346;2022-12-26T03:54:15;100.55;;;96.05;;
41099;SDS011;26844;53.686;-6.346;2022-12-26T03:57:07;90.57;;;85.85;;
41099;SDS011;26844;53.686;-6.346;2022-12-26T03:59:54;64.03;;;60.60;;
41099;SDS011;26844;53.686;-6.346;2022-12-26T04:02:42;81.60;;;77.72;;
41099;SDS011;26844;53.686;-6.346;2022-12-26T04:05:27;87.88;;;83.28;;
41099;SDS011;26844;53.686;-6.346;2022-12-26T04:08:21;96.10;;;91.68;;
41099;SDS011;26844;53.686;-6.346;2022-12-26T04:11:08;84.47;;;80.20;;
41099;SDS011;26844;53.686;-6.346;2022-12-26T04:20:15;99.03;;;94.13;;
41099;SDS011;26844;53.686;-6.346;2022-12-26T04:22:21;91.28;;;86.70;;
41099;SDS011;26844;53.686;-6.346;2022-12-26T04:25:09;96.72;;;92.38;;
41099;SDS011;26844;53.686;-6.346;2022-12-26T04:27:55;104.68;;;99.20;;
41099;SDS011;26844;53.686;-6.346;2022-12-26T04:30:39;103.95;;;98.15;;
41099;SDS011;26844;53.686;-6.346;2022-12-26T04:33:35;111.07;;;105.88;;
41099;SDS011;26844;53.686;-6.346;2022-12-26T04:36:24;75.32;;;71.40;;
41099;SDS011;26844;53.686;-6.346;2022-12-26T04:39:09;47.42;;;45.17;;
41099;SDS011;26844;53.686;-6.346;2022-12-26T04:41:54;73.68;;;70.13;;
41099;SDS011;26844;53.686;-6.346;2022-12-26T04:44:40;53.60;;;50.90;;
41099;SDS011;26844;53.686;-6.346;2022-12-26T04:47:05;35.53;;;33.83;;
41099;SDS011;26844;53.686;-6.346;2022-12-26T04:49:31;36.10;;;34.35;;
41099;SDS011;26844;53.686;-6.346;2022-12-26T04:52:23;27.70;;;25.95;;
41099;SDS011;26844;53.686;-6.346;2022-12-26T04:54:49;70.72;;;67.45;;
41099;SDS011;26844;53.686;-6.346;2022-12-26T04:57:14;44.22;;;42.08;;
41099;SDS011;26844;53.686;-6.346;2022-12-26T04:59:39;35.28;;;33.05;;
41099;SDS011;26844;53.686;-6.346;2022-12-26T05:02:04;27.95;;;26.10;;
41099;SDS011;26844;53.686;-6.346;2022-12-26T05:04:48;123.78;;;117.50;;
41099;SDS011;26844;53.686;-6.346;2022-12-26T05:07:33;113.05;;;107.63;;
41099;SDS011;26844;53.686;-6.346;2022-12-26T05:10:21;124.32;;;118.43;;
41099;SDS011;26844;53.686;-6.346;2022-12-26T05:12:47;79.60;;;75.40;;
41099;SDS011;26844;53.686;-6.346;2022-12-26T05:15:12;72.25;;;68.60;;
41099;SDS011;26844;53.686;-6.346;2022-12-26T05:17:38;110.28;;;105.20;;
41099;SDS011;26844;53.686;-6.346;2022-12-26T05:20:22;130.35;;;123.95;;
41099;SDS011;26844;53.686;-6.346;2022-12-26T05:23:09;142.55;;;135.93;;
41099;SDS011;26844;53.686;-6.346;2022-12-26T05:25:56;109.88;;;104.35;;
41099;SDS011;26844;53.686;-6.346;2022-12-26T05:28:40;108.05;;;102.68;;
41099;SDS011;26844;53.686;-6.346;2022-12-26T05:31:05;94.55;;;89.97;;
41099;SDS011;26844;53.686;-6.346;2022-12-26T05:33:31;77.70;;;74.20;;
41099;SDS011;26844;53.686;-6.346;2022-12-26T05:36:15;122.40;;;116.70;;
41099;SDS011;26844;53.686;-6.346;2022-12-26T05:38:41;130.40;;;123.43;;
41099;SDS011;26844;53.686;-6.346;2022-12-26T05:41:06;116.10;;;110.25;;
41099;SDS011;26844;53.686;-6.346;2022-12-26T05:43:32;96.80;;;91.95;;
41099;SDS011;26844;53.686;-6.346;2022-12-26T05:45:57;131.40;;;125.07;;
41099;SDS011;26844;53.686;-6.346;2022-12-26T05:48:22;139.07;;;131.98;;
41099;SDS011;26844;53.686;-6.346;2022-12-26T05:50:47;128.27;;;121.95;;
41099;SDS011;26844;53.686;-6.346;2022-12-26T05:53:13;135.13;;;128.55;;
41099;SDS011;26844;53.686;-6.346;2022-12-26T05:55:38;129.32;;;122.72;;
41099;SDS011;26844;53.686;-6.346;2022-12-26T05:58:03;143.80;;;136.95;;
41099;SDS011;26844;53.686;-6.346;2022-12-26T06:00:29;106.25;;;100.97;;
41099;SDS011;26844;53.686;-6.346;2022-12-26T06:02:54;109.30;;;104.05;;
41099;SDS011;26844;53.686;-6.346;2022-12-26T06:05:20;80.82;;;76.68;;
41099;SDS011;26844;53.686;-6.346;2022-12-26T06:07:45;106.68;;;101.13;;
41099;SDS011;26844;53.686;-6.346;2022-12-26T06:10:11;80.55;;;76.70;;
41099;SDS011;26844;53.686;-6.346;2022-12-26T06:12:36;69.10;;;65.90;;
41099;SDS011;26844;53.686;-6.346;2022-12-26T06:15:01;92.53;;;88.00;;
41099;SDS011;26844;53.686;-6.346;2022-12-26T06:17:27;104.45;;;99.55;;
41099;SDS011;26844;53.686;-6.346;2022-12-26T06:19:52;50.88;;;48.50;;
41099;SDS011;26844;53.686;-6.346;2022-12-26T06:22:17;87.60;;;83.53;;
41099;SDS011;26844;53.686;-6.346;2022-12-26T06:24:43;52.05;;;49.65;;
41099;SDS011;26844;53.686;-6.346;2022-12-26T06:27:08;136.77;;;130.27;;
41099;SDS011;26844;53.686;-6.346;2022-12-26T06:29:33;58.03;;;55.00;;
41099;SDS011;26844;53.686;-6.346;2022-12-26T06:31:58;88.60;;;84.07;;
41099;SDS011;26844;53.686;-6.346;2022-12-26T06:34:24;45.38;;;42.78;;
41099;SDS011;26844;53.686;-6.346;2022-12-26T06:36:49;37.85;;;36.13;;
41099;SDS011;26844;53.686;-6.346;2022-12-26T06:39:14;47.90;;;45.55;;
41099;SDS011;26844;53.686;-6.346;2022-12-26T06:41:39;29.00;;;27.55;;
41099;SDS011;26844;53.686;-6.346;2022-12-26T06:44:05;33.95;;;32.38;;
41099;SDS011;26844;53.686;-6.346;2022-12-26T06:46:30;36.33;;;34.47;;
41099;SDS011;26844;53.686;-6.346;2022-12-26T06:48:55;43.67;;;41.75;;
41099;SDS011;26844;53.686;-6.346;2022-12-26T06:51:21;40.47;;;38.47;;
41099;SDS011;26844;53.686;-6.346;2022-12-26T06:53:47;34.15;;;32.33;;
41099;SDS011;26844;53.686;-6.346;2022-12-26T06:56:14;39.00;;;37.05;;
41099;SDS011;26844;53.686;-6.346;2022-12-26T06:58:39;27.50;;;26.23;;
41099;SDS011;26844;53.686;-6.346;2022-12-26T07:01:09;17.23;;;16.20;;
41099;SDS011;26844;53.686;-6.346;2022-12-26T07:03:34;25.63;;;23.77;;
41099;SDS011;26844;53.686;-6.346;2022-12-26T07:06:07;40.30;;;38.30;;
41099;SDS011;26844;53.686;-6.346;2022-12-26T07:08:32;25.42;;;23.95;;
41099;SDS011;26844;53.686;-6.346;2022-12-26T07:10:58;18.13;;;17.25;;
41099;SDS011;26844;53.686;-6.346;2022-12-26T07:13:23;31.25;;;29.85;;
41099;SDS011;26844;53.686;-6.346;2022-12-26T07:15:48;25.27;;;24.15;;
41099;SDS011;26844;53.686;-6.346;2022-12-26T07:18:14;24.60;;;23.42;;
41099;SDS011;26844;53.686;-6.346;2022-12-26T07:20:39;25.83;;;24.45;;
41099;SDS011;26844;53.686;-6.346;2022-12-26T07:23:04;24.35;;;23.27;;
41099;SDS011;26844;53.686;-6.346;2022-12-26T07:25:29;23.92;;;22.55;;
41099;SDS011;26844;53.686;-6.346;2022-12-26T07:27:54;27.30;;;25.40;;
41099;SDS011;26844;53.686;-6.346;2022-12-26T07:30:20;22.63;;;21.40;;
41099;SDS011;26844;53.686;-6.346;2022-12-26T07:32:45;22.98;;;21.98;;
41099;SDS011;26844;53.686;-6.346;2022-12-26T07:35:10;34.60;;;33.10;;
41099;SDS011;26844;53.686;-6.346;2022-12-26T07:37:35;61.72;;;58.90;;
41099;SDS011;26844;53.686;-6.346;2022-12-26T07:40:01;75.72;;;71.97;;
41099;SDS011;26844;53.686;-6.346;2022-12-26T07:42:26;86.97;;;82.93;;
41099;SDS011;26844;53.686;-6.346;2022-12-26T07:44:51;75.78;;;71.95;;
41099;SDS011;26844;53.686;-6.346;2022-12-26T07:47:17;106.00;;;101.18;;
41099;SDS011;26844;53.686;-6.346;2022-12-26T07:49:42;71.50;;;68.20;;
41099;SDS011;26844;53.686;-6.346;2022-12-26T07:52:07;78.22;;;74.13;;
41099;SDS011;26844;53.686;-6.346;2022-12-26T07:54:32;83.45;;;79.25;;
41099;SDS011;26844;53.686;-6.346;2022-12-26T07:56:58;81.13;;;77.32;;
41099;SDS011;26844;53.686;-6.346;2022-12-26T07:59:23;85.63;;;81.38;;
41099;SDS011;26844;53.686;-6.346;2022-12-26T08:01:48;80.85;;;77.28;;
41099;SDS011;26844;53.686;-6.346;2022-12-26T08:04:14;83.32;;;79.65;;
41099;SDS011;26844;53.686;-6.346;2022-12-26T08:06:39;78.88;;;75.00;;
41099;SDS011;26844;53.686;-6.346;2022-12-26T08:09:04;60.00;;;57.33;;
41099;SDS011;26844;53.686;-6.346;2022-12-26T08:11:31;66.93;;;63.72;;
41099;SDS011;26844;53.686;-6.346;2022-12-26T08:13:57;90.07;;;86.03;;
41099;SDS011;26844;53.686;-6.346;2022-12-26T08:16:22;100.15;;;95.50;;
41099;SDS011;26844;53.686;-6.346;2022-12-26T08:18:47;65.57;;;62.22;;
41099;SDS011;26844;53.686;-6.346;2022-12-26T08:21:12;58.55;;;55.90;;
41099;SDS011;26844;53.686;-6.346;2022-12-26T08:23:38;106.00;;;100.68;;
41099;SDS011;26844;53.686;-6.346;2022-12-26T08:26:07;92.78;;;88.53;;
41099;SDS011;26844;53.686;-6.346;2022-12-26T08:28:33;96.35;;;91.80;;
41099;SDS011;26844;53.686;-6.346;2022-12-26T08:30:59;100.20;;;95.45;;
41099;SDS011;26844;53.686;-6.346;2022-12-26T08:33:24;114.10;;;107.82;;
41099;SDS011;26844;53.686;-6.346;2022-12-26T08:35:49;98.47;;;93.63;;
41099;SDS011;26844;53.686;-6.346;2022-12-26T08:38:15;133.25;;;127.00;;
41099;SDS011;26844;53.686;-6.346;2022-12-26T08:40:40;87.70;;;83.70;;
41099;SDS011;26844;53.686;-6.346;2022-12-26T08:43:05;123.03;;;116.80;;
41099;SDS011;26844;53.686;-6.346;2022-12-26T08:45:31;112.55;;;106.97;;
41099;SDS011;26844;53.686;-6.346;2022-12-26T08:47:56;91.18;;;86.15;;
41099;SDS011;26844;53.686;-6.346;2022-12-26T08:50:22;99.85;;;94.82;;
41099;SDS011;26844;53.686;-6.346;2022-12-26T08:52:47;92.47;;;87.82;;
41099;SDS011;26844;53.686;-6.346;2022-12-26T08:55:12;58.70;;;56.00;;
41099;SDS011;26844;53.686;-6.346;2022-12-26T08:57:37;122.18;;;116.45;;
41099;SDS011;26844;53.686;-6.346;2022-12-26T09:00:03;125.45;;;119.50;;
41099;SDS011;26844;53.686;-6.346;2022-12-26T09:02:28;111.95;;;106.65;;
41099;SDS011;26844;53.686;-6.346;2022-12-26T09:04:53;124.47;;;118.10;;
41099;SDS011;26844;53.686;-6.346;2022-12-26T09:07:19;153.00;;;145.18;;
41099;SDS011;26844;53.686;-6.346;2022-12-26T09:09:44;160.20;;;152.52;;
41099;SDS011;26844;53.686;-6.346;2022-12-26T09:12:09;114.35;;;108.63;;
41099;SDS011;26844;53.686;-6.346;2022-12-26T09:14:35;114.45;;;108.88;;
41099;SDS011;26844;53.686;-6.346;2022-12-26T09:17:00;150.10;;;143.18;;
41099;SDS011;26844;53.686;-6.346;2022-12-26T09:19:25;141.77;;;135.13;;
41099;SDS011;26844;53.686;-6.346;2022-12-26T09:21:54;145.30;;;138.27;;
41099;SDS011;26844;53.686;-6.346;2022-12-26T09:24:39;148.32;;;140.88;;
41099;SDS011;26844;53.686;-6.346;2022-12-26T09:27:04;131.38;;;123.30;;
41099;SDS011;26844;53.686;-6.346;2022-12-26T09:29:29;123.90;;;117.20;;
41099;SDS011;26844;53.686;-6.346;2022-12-26T09:31:55;142.52;;;135.02;;
41099;SDS011;26844;53.686;-6.346;2022-12-26T09:34:20;120.80;;;113.88;;
41099;SDS011;26844;53.686;-6.346;2022-12-26T09:36:45;144.30;;;136.88;;
41099;SDS011;26844;53.686;-6.346;2022-12-26T09:39:10;147.75;;;140.25;;
41099;SDS011;26844;53.686;-6.346;2022-12-26T09:41:49;109.72;;;103.35;;
41099;SDS011;26844;53.686;-6.346;2022-12-26T09:52:31;117.32;;;111.65;;
41099;SDS011;26844;53.686;-6.346;2022-12-26T09:54:40;76.60;;;72.72;;
41099;SDS011;26844;53.686;-6.346;2022-12-26T09:57:08;114.40;;;108.82;;
41099;SDS011;26844;53.686;-6.346;2022-12-26T09:59:40;117.32;;;111.50;;
41099;SDS011;26844;53.686;-6.346;2022-12-26T10:02:17;120.57;;;114.72;;
41099;SDS011;26844;53.686;-6.346;2022-12-26T10:04:43;164.25;;;154.02;;
41099;SDS011;26844;53.686;-6.346;2022-12-26T10:07:28;116.72;;;110.90;;
41099;SDS011;26844;53.686;-6.346;2022-12-26T10:10:43;200.93;;;186.10;;
41099;SDS011;26844;53.686;-6.346;2022-12-26T10:17:55;130.93;;;124.43;;
41099;SDS011;26844;53.686;-6.346;2022-12-26T10:28:39;142.80;;;135.20;;
41099;SDS011;26844;53.686;-6.346;2022-12-26T10:31:08;168.68;;;159.65;;
41099;SDS011;26844;53.686;-6.346;2022-12-26T10:33:46;98.60;;;94.05;;
41099;SDS011;26844;53.686;-6.346;2022-12-26T10:38:39;85.13;;;80.93;;
41099;SDS011;26844;53.686;-6.346;2022-12-26T10:41:13;94.95;;;90.50;;
41099;SDS011;26844;53.686;-6.346;2022-12-26T10:43:41;90.25;;;85.93;;
41099;SDS011;26844;53.686;-6.346;2022-12-26T10:48:38;81.85;;;78.20;;
41099;SDS011;26844;53.686;-6.346;2022-12-26T10:51:03;161.18;;;152.80;;
41099;SDS011;26844;53.686;-6.346;2022-12-26T10:53:29;150.50;;;142.93;;
41099;SDS011;26844;53.686;-6.346;2022-12-26T10:55:54;136.25;;;129.65;;
41099;SDS011;26844;53.686;-6.346;2022-12-26T10:58:27;172.88;;;164.07;;
41099;SDS011;26844;53.686;-6.346;2022-12-26T11:00:53;122.50;;;116.60;;
41099;SDS011;26844;53.686;-6.346;2022-12-26T11:03:19;125.32;;;119.45;;
41099;SDS011;26844;53.686;-6.346;2022-12-26T11:05:49;144.18;;;137.02;;
41099;SDS011;26844;53.686;-6.346;2022-12-26T11:08:18;97.57;;;92.95;;
41099;SDS011;26844;53.686;-6.346;2022-12-26T11:10:46;112.70;;;107.35;;
41099;SDS011;26844;53.686;-6.346;2022-12-26T11:13:19;142.80;;;135.10;;
41099;SDS011;26844;53.686;-6.346;2022-12-26T11:15:54;106.57;;;101.32;;
41099;SDS011;26844;53.686;-6.346;2022-12-26T11:18:38;149.07;;;140.25;;
41099;SDS011;26844;53.686;-6.346;2022-12-26T11:23:42;219.55;;;204.93;;
41099;SDS011;26844;53.686;-6.346;2022-12-26T11:26:23;166.57;;;156.77;;
41099;SDS011;26844;53.686;-6.346;2022-12-26T11:29:06;111.18;;;105.53;;
41099;SDS011;26844;53.686;-6.346;2022-12-26T11:31:31;148.65;;;140.55;;
41099;SDS011;26844;53.686;-6.346;2022-12-26T11:33:57;133.73;;;127.07;;
41099;SDS011;26844;53.686;-6.346;2022-12-26T11:36:24;195.90;;;183.13;;
41099;SDS011;26844;53.686;-6.346;2022-12-26T11:38:55;90.68;;;86.30;;
41099;SDS011;26844;53.686;-6.346;2022-12-26T11:46:30;93.85;;;89.28;;
41099;SDS011;26844;53.686;-6.346;2022-12-26T11:48:56;190.65;;;178.23;;
41099;SDS011;26844;53.686;-6.346;2022-12-26T11:51:44;220.95;;;205.40;;
41099;SDS011;26844;53.686;-6.346;2022-12-26T11:56:41;91.53;;;86.63;;
41099;SDS011;26844;53.686;-6.346;2022-12-26T11:59:17;85.30;;;81.30;;
41099;SDS011;26844;53.686;-6.346;2022-12-26T12:01:42;159.80;;;150.23;;
41099;SDS011;26844;53.686;-6.346;2022-12-26T12:04:08;209.13;;;195.90;;
41099;SDS011;26844;53.686;-6.346;2022-12-26T12:06:58;52.88;;;50.40;;
41099;SDS011;26844;53.686;-6.346;2022-12-26T12:22:21;152.25;;;143.10;;
41099;SDS011;26844;53.686;-6.346;2022-12-26T12:24:54;168.32;;;156.77;;
41099;SDS011;26844;53.686;-6.346;2022-12-26T12:30:02;109.57;;;104.45;;
41099;SDS011;26844;53.686;-6.346;2022-12-26T12:32:47;110.03;;;104.40;;
41099;SDS011;26844;53.686;-6.346;2022-12-26T12:35:22;96.72;;;92.03;;
41099;SDS011;26844;53.686;-6.346;2022-12-26T12:37:54;74.20;;;70.72;;
41099;SDS011;26844;53.686;-6.346;2022-12-26T12:40:41;94.40;;;90.00;;
41099;SDS011;26844;53.686;-6.346;2022-12-26T12:56:47;103.95;;;98.68;;
41099;SDS011;26844;53.686;-6.346;2022-12-26T12:59:21;88.55;;;84.43;;
41099;SDS011;26844;53.686;-6.346;2022-12-26T13:01:50;88.80;;;84.82;;
41099;SDS011;26844;53.686;-6.346;2022-12-26T13:09:18;194.30;;;183.68;;
41099;SDS011;26844;53.686;-6.346;2022-12-26T13:14:25;155.52;;;146.68;;
41099;SDS011;26844;53.686;-6.346;2022-12-26T13:16:54;106.00;;;100.72;;
41099;SDS011;26844;53.686;-6.346;2022-12-26T13:19:34;123.57;;;117.25;;
41099;SDS011;26844;53.686;-6.346;2022-12-26T13:22:03;96.72;;;92.20;;
41099;SDS011;26844;53.686;-6.346;2022-12-26T13:24:33;101.53;;;96.72;;
41099;SDS011;26844;53.686;-6.346;2022-12-26T13:31:56;100.93;;;96.10;;
41099;SDS011;26844;53.686;-6.346;2022-12-26T13:34:22;82.43;;;78.57;;
41099;SDS011;26844;53.686;-6.346;2022-12-26T13:36:48;153.95;;;145.50;;
41099;SDS011;26844;53.686;-6.346;2022-12-26T13:39:28;161.13;;;152.43;;
41099;SDS011;26844;53.686;-6.346;2022-12-26T13:42:02;115.28;;;108.13;;
41099;SDS011;26844;53.686;-6.346;2022-12-26T13:44:47;171.93;;;162.30;;
41099;SDS011;26844;53.686;-6.346;2022-12-26T13:47:30;63.65;;;60.65;;
41099;SDS011;26844;53.686;-6.346;2022-12-26T13:49:56;138.48;;;130.05;;
41099;SDS011;26844;53.686;-6.346;2022-12-26T14:00:09;126.80;;;119.35;;
41099;SDS011;26844;53.686;-6.346;2022-12-26T14:02:47;94.75;;;89.68;;
41099;SDS011;26844;53.686;-6.346;2022-12-26T14:05:26;62.75;;;59.85;;
41099;SDS011;26844;53.686;-6.346;2022-12-26T14:07:58;70.18;;;66.68;;
41099;SDS011;26844;53.686;-6.346;2022-12-26T14:10:38;53.67;;;51.17;;
41099;SDS011;26844;53.686;-6.346;2022-12-26T14:18:26;146.57;;;138.00;;
41099;SDS011;26844;53.686;-6.346;2022-12-26T14:31:23;100.80;;;95.75;;
41099;SDS011;26844;53.686;-6.346;2022-12-26T14:33:39;96.05;;;91.55;;
41099;SDS011;26844;53.686;-6.346;2022-12-26T14:36:20;132.63;;;125.85;;
41099;SDS011;26844;53.686;-6.346;2022-12-26T14:38:52;71.07;;;67.72;;
41099;SDS011;26844;53.686;-6.346;2022-12-26T14:41:18;55.70;;;53.00;;
41099;SDS011;26844;53.686;-6.346;2022-12-26T14:49:20;66.82;;;63.75;;
41099;SDS011;26844;53.686;-6.346;2022-12-26T14:51:46;163.65;;;155.32;;
41099;SDS011;26844;53.686;-6.346;2022-12-26T14:56:49;153.63;;;145.55;;
41099;SDS011;26844;53.686;-6.346;2022-12-26T14:59:23;126.95;;;120.95;;
41099;SDS011;26844;53.686;-6.346;2022-12-26T15:01:58;128.27;;;122.15;;
41099;SDS011;26844;53.686;-6.346;2022-12-26T15:17:34;67.45;;;64.35;;
41099;SDS011;26844;53.686;-6.346;2022-12-26T15:27:59;129.32;;;121.90;;
41099;SDS011;26844;53.686;-6.346;2022-12-26T15:33:11;67.18;;;63.92;;
41099;SDS011;26844;53.686;-6.346;2022-12-26T15:35:45;84.32;;;80.10;;
41099;SDS011;26844;53.686;-6.346;2022-12-26T15:38:32;101.53;;;96.72;;
41099;SDS011;26844;53.686;-6.346;2022-12-26T15:46:16;56.65;;;54.05;;
41099;SDS011;26844;53.686;-6.346;2022-12-26T15:49:01;112.85;;;106.07;;
41099;SDS011;26844;53.686;-6.346;2022-12-26T15:59:32;75.85;;;72.25;;
41099;SDS011;26844;53.686;-6.346;2022-12-26T16:01:59;82.10;;;78.05;;
41099;SDS011;26844;53.686;-6.346;2022-12-26T16:04:36;62.20;;;59.20;;
41099;SDS011;26844;53.686;-6.346;2022-12-26T16:09:50;53.92;;;51.40;;
41099;SDS011;26844;53.686;-6.346;2022-12-26T16:12:35;84.22;;;79.80;;
41099;SDS011;26844;53.686;-6.346;2022-12-26T16:15:13;67.07;;;63.70;;
41099;SDS011;26844;53.686;-6.346;2022-12-26T16:17:39;54.97;;;52.05;;
41099;SDS011;26844;53.686;-6.346;2022-12-26T16:23:11;49.90;;;47.58;;
41099;SDS011;26844;53.686;-6.346;2022-12-26T16:25:38;89.10;;;84.30;;
41099;SDS011;26844;53.686;-6.346;2022-12-26T16:28:03;31.67;;;30.17;;
41099;SDS011;26844;53.686;-6.346;2022-12-26T16:30:29;78.50;;;74.50;;
41099;SDS011;26844;53.686;-6.346;2022-12-26T16:32:56;57.50;;;54.33;;
41099;SDS011;26844;53.686;-6.346;2022-12-26T16:35:42;61.60;;;58.10;;
41099;SDS011;26844;53.686;-6.346;2022-12-26T16:38:10;79.68;;;75.80;;
41099;SDS011;26844;53.686;-6.346;2022-12-26T16:40:43;72.60;;;69.25;;
41099;SDS011;26844;53.686;-6.346;2022-12-26T16:43:23;58.10;;;55.33;;
41099;SDS011;26844;53.686;-6.346;2022-12-26T16:45:51;88.72;;;84.32;;
41099;SDS011;26844;53.686;-6.346;2022-12-26T16:48:20;98.75;;;93.97;;
41099;SDS011;26844;53.686;-6.346;2022-12-26T16:50:47;100.78;;;95.70;;
41099;SDS011;26844;53.686;-6.346;2022-12-26T16:58:13;177.40;;;168.10;;
41099;SDS011;26844;53.686;-6.346;2022-12-26T17:00:43;151.32;;;143.00;;
41099;SDS011;26844;53.686;-6.346;2022-12-26T17:03:13;147.23;;;138.73;;
41099;SDS011;26844;53.686;-6.346;2022-12-26T17:05:43;151.18;;;143.32;;
41099;SDS011;26844;53.686;-6.346;2022-12-26T17:08:11;136.05;;;129.48;;
41099;SDS011;26844;53.686;-6.346;2022-12-26T17:10:37;98.35;;;93.35;;
41099;SDS011;26844;53.686;-6.346;2022-12-26T17:13:03;110.32;;;104.82;;
41099;SDS011;26844;53.686;-6.346;2022-12-26T17:15:30;96.32;;;91.63;;
41099;SDS011;26844;53.686;-6.346;2022-12-26T17:17:56;167.93;;;158.32;;
41099;SDS011;26844;53.686;-6.346;2022-12-26T17:22:49;132.70;;;124.13;;
41099;SDS011;26844;53.686;-6.346;2022-12-26T17:25:30;111.43;;;105.63;;
41099;SDS011;26844;53.686;-6.346;2022-12-26T17:30:31;92.32;;;87.57;;
41099;SDS011;26844;53.686;-6.346;2022-12-26T17:33:04;101.00;;;95.75;;
41099;SDS011;26844;53.686;-6.346;2022-12-26T17:35:35;105.70;;;100.03;;
41099;SDS011;26844;53.686;-6.346;2022-12-26T17:40:26;157.18;;;149.68;;
41099;SDS011;26844;53.686;-6.346;2022-12-26T17:42:55;120.78;;;114.47;;
41099;SDS011;26844;53.686;-6.346;2022-12-26T17:45:28;174.10;;;165.85;;
41099;SDS011;26844;53.686;-6.346;2022-12-26T17:47:53;216.43;;;206.10;;
41099;SDS011;26844;53.686;-6.346;2022-12-26T17:50:19;237.88;;;226.77;;
41099;SDS011;26844;53.686;-6.346;2022-12-26T17:52:45;162.95;;;153.45;;